createdAt,value
2023-04-30T00:01:49.068Z,34.90
2023-04-30T00:06:06.365Z,39.97
2023-04-30T00:10:23.837Z,36.35
2023-04-30T00:14:41.089Z,39.72
2023-04-30T00:18:58.305Z,37.70
2023-04-30T00:23:15.499Z,34.33
2023-04-30T00:27:32.986Z,35.58
2023-04-30T00:31:50.297Z,38.25
2023-04-30T00:36:07.864Z,36.33
2023-04-30T00:40:25.232Z,36.53
2023-04-30T00:44:42.472Z,35.20
2023-04-30T00:49:02.509Z,37.38
2023-04-30T00:53:20.477Z,35.35
2023-04-30T00:57:38.833Z,38.07
2023-04-30T01:01:56.654Z,34.35
2023-04-30T01:06:13.926Z,37.10
2023-04-30T01:10:40.999Z,38.63
2023-04-30T01:15:17.029Z,31.95
2023-04-30T01:19:44.536Z,33.08
2023-04-30T01:24:13.425Z,34.28
2023-04-30T01:28:32.454Z,32.97
2023-04-30T01:32:49.856Z,26.63
2023-04-30T01:37:30.806Z,24.88
2023-04-30T01:42:09.977Z,21.40
2023-04-30T01:46:30.567Z,23.17
2023-04-30T01:50:52.110Z,24.35
2023-04-30T01:55:28.119Z,26.10
2023-04-30T01:59:47.006Z,30.42
2023-04-30T02:04:05.164Z,27.73
2023-04-30T02:08:22.727Z,30.45
2023-04-30T02:12:40.893Z,27.08
2023-04-30T02:16:58.340Z,31.77
2023-04-30T02:21:15.787Z,23.33
2023-04-30T02:25:38.012Z,22.10
2023-04-30T02:29:55.547Z,20.25
2023-04-30T02:34:12.951Z,18.13
2023-04-30T02:38:30.373Z,19.52
2023-04-30T02:42:48.750Z,15.55
2023-04-30T02:47:06.128Z,19.45
2023-04-30T02:51:23.402Z,18.40
2023-04-30T02:55:40.979Z,17.77
2023-04-30T02:59:58.635Z,15.73
2023-04-30T03:04:15.916Z,17.17
2023-04-30T03:08:33.289Z,23.58
2023-04-30T03:12:50.654Z,23.42
2023-04-30T03:17:08.094Z,17.73
2023-04-30T03:21:25.449Z,22.08
2023-04-30T03:25:42.667Z,15.65
2023-04-30T03:30:00.064Z,23.08
2023-04-30T03:34:17.410Z,19.15
2023-04-30T03:38:34.616Z,21.08
2023-04-30T03:42:52.003Z,21.75
2023-04-30T03:47:09.683Z,19.95
2023-04-30T03:51:27.566Z,20.25
2023-04-30T03:55:45.116Z,22.48
2023-04-30T04:00:04.627Z,18.67
2023-04-30T04:04:22.214Z,19.40
2023-04-30T04:08:43.480Z,19.63
2023-04-30T04:13:01.811Z,20.77
2023-04-30T04:17:19.066Z,16.67
2023-04-30T04:21:37.067Z,18.02
2023-04-30T04:25:54.374Z,16.77
2023-04-30T04:30:12.357Z,20.45
2023-04-30T04:34:29.618Z,19.80
2023-04-30T04:38:47.357Z,23.20
2023-04-30T04:43:04.608Z,21.13
2023-04-30T04:47:22.980Z,18.40
2023-04-30T04:55:57.671Z,22.67
2023-04-30T05:00:15.291Z,18.98
2023-04-30T05:04:32.729Z,19.00
2023-04-30T05:08:50.215Z,18.10
2023-04-30T05:13:07.463Z,16.40
2023-04-30T05:17:25.099Z,16.23
2023-04-30T05:21:42.709Z,19.55
2023-04-30T05:25:59.886Z,15.73
2023-04-30T05:30:17.376Z,20.02
2023-04-30T05:34:34.696Z,16.80
2023-04-30T05:38:51.987Z,20.40
2023-04-30T05:43:09.248Z,21.77
2023-04-30T05:47:26.444Z,18.23
2023-04-30T05:51:43.591Z,17.00
2023-04-30T05:56:01.082Z,16.55
2023-04-30T06:00:18.570Z,18.08
2023-04-30T06:04:36.343Z,23.02
2023-04-30T06:08:53.758Z,24.27
2023-04-30T06:13:11.350Z,14.57
2023-04-30T06:17:28.794Z,26.20
2023-04-30T06:21:46.124Z,18.63
2023-04-30T06:26:03.675Z,20.02
2023-04-30T06:30:21.073Z,19.40
2023-04-30T06:34:39.355Z,19.80
2023-04-30T06:38:56.686Z,19.67
2023-04-30T06:43:13.908Z,20.35
2023-04-30T06:47:38.346Z,19.02
2023-04-30T06:51:58.392Z,15.80
2023-04-30T06:56:16.460Z,19.52
2023-04-30T07:00:34.308Z,19.02
2023-04-30T07:04:51.854Z,18.33
2023-04-30T07:09:09.136Z,16.27
2023-04-30T07:13:26.754Z,15.55
2023-04-30T07:17:44.147Z,19.98
2023-04-30T07:26:20.104Z,14.80
2023-04-30T07:30:37.371Z,17.25
2023-04-30T07:34:54.706Z,18.77
2023-04-30T07:39:12.029Z,15.48
2023-04-30T07:43:31.277Z,14.85
2023-04-30T07:47:49.250Z,14.25
2023-04-30T07:52:11.055Z,15.45
2023-04-30T07:56:28.376Z,23.13
2023-04-30T08:00:45.934Z,21.20
2023-04-30T08:05:05.987Z,16.20
2023-04-30T08:09:23.626Z,15.35
2023-04-30T08:13:41.919Z,14.38
2023-04-30T08:17:59.217Z,16.40
2023-04-30T08:22:16.940Z,16.75
2023-04-30T08:26:35.456Z,14.93
2023-04-30T08:30:52.841Z,15.73
2023-04-30T08:35:10.471Z,15.05
2023-04-30T08:39:27.990Z,16.23
2023-04-30T08:43:45.387Z,16.40
2023-04-30T08:48:04.743Z,17.20
2023-04-30T08:52:22.479Z,17.70
2023-04-30T08:56:41.173Z,15.70
2023-04-30T09:01:00.353Z,17.17
2023-04-30T09:05:18.482Z,13.80
2023-04-30T09:09:39.397Z,18.33
2023-04-30T09:13:59.459Z,20.83
2023-04-30T09:18:18.840Z,18.00
2023-04-30T09:22:37.460Z,10.68
2023-04-30T09:26:54.688Z,11.73
2023-04-30T09:31:20.501Z,13.73
2023-04-30T09:35:39.927Z,14.85
2023-04-30T09:39:57.382Z,12.45
2023-04-30T09:44:36.564Z,18.55
2023-04-30T09:49:04.421Z,14.20
2023-04-30T09:53:21.989Z,12.77
2023-04-30T09:57:39.799Z,16.42
2023-04-30T10:02:01.253Z,12.02
2023-04-30T10:06:20.918Z,15.05
2023-04-30T10:10:41.155Z,11.50
2023-04-30T10:15:06.781Z,13.25
2023-04-30T10:19:26.488Z,12.82
2023-04-30T10:23:44.816Z,12.07
2023-04-30T10:28:04.624Z,13.80
2023-04-30T10:32:24.325Z,11.32
2023-04-30T10:36:57.006Z,11.57
2023-04-30T10:41:15.236Z,10.98
2023-04-30T10:45:43.899Z,8.43
2023-04-30T10:50:05.347Z,9.30
2023-04-30T10:54:31.086Z,10.43
2023-04-30T10:58:51.194Z,10.40
2023-04-30T11:03:13.126Z,7.00
2023-04-30T11:07:30.565Z,8.80
2023-04-30T11:11:50.407Z,9.30
2023-04-30T11:16:09.785Z,10.70
2023-04-30T11:20:28.501Z,8.85
2023-04-30T11:25:15.275Z,11.05
2023-04-30T11:29:35.600Z,8.93
2023-04-30T11:33:56.280Z,9.25
2023-04-30T11:38:15.826Z,6.50
2023-04-30T11:42:36.613Z,8.45
2023-04-30T11:46:54.362Z,7.90
2023-04-30T11:51:20.493Z,7.90
2023-04-30T11:55:40.284Z,4.88
2023-04-30T12:00:10.110Z,10.10
2023-04-30T12:04:27.633Z,8.23
2023-04-30T12:08:45.410Z,5.45
2023-04-30T12:13:03.375Z,11.07
2023-04-30T12:17:35.934Z,4.78
2023-04-30T12:21:55.154Z,8.18
2023-04-30T12:26:12.986Z,6.53
2023-04-30T12:30:30.477Z,7.65
2023-04-30T12:34:49.123Z,6.88
2023-04-30T12:39:11.609Z,7.80
2023-04-30T12:43:28.873Z,8.52
2023-04-30T12:47:46.754Z,8.23
2023-04-30T12:52:08.868Z,11.02
2023-04-30T12:56:26.146Z,6.57
2023-04-30T13:00:52.768Z,8.52
2023-04-30T13:05:11.549Z,9.95
2023-04-30T13:09:29.965Z,12.57
2023-04-30T13:13:47.280Z,7.90
2023-04-30T13:18:04.987Z,7.82
2023-04-30T13:22:23.870Z,10.85
2023-04-30T13:30:58.585Z,6.57
2023-04-30T13:35:16.544Z,6.82
2023-04-30T13:39:34.034Z,3.50
2023-04-30T13:43:51.789Z,7.47
2023-04-30T13:48:09.081Z,6.60
2023-04-30T13:52:26.928Z,7.70
2023-04-30T13:56:44.347Z,8.52
2023-04-30T14:01:02.020Z,8.57
2023-04-30T14:05:20.187Z,4.97
2023-04-30T14:09:37.431Z,7.90
2023-04-30T14:13:55.356Z,5.28
2023-04-30T14:18:12.883Z,7.37
2023-04-30T14:22:30.362Z,6.07
2023-04-30T14:26:48.010Z,6.28
2023-04-30T14:31:08.728Z,5.10
2023-04-30T14:35:26.409Z,7.88
2023-04-30T14:39:44.022Z,3.83
2023-04-30T14:44:01.393Z,6.70
2023-04-30T14:48:18.710Z,5.15
2023-04-30T14:52:35.988Z,6.75
2023-04-30T14:56:54.063Z,5.30
2023-04-30T15:01:11.601Z,5.63
2023-04-30T15:05:29.472Z,5.78
2023-04-30T15:09:47.521Z,4.13
2023-04-30T15:14:05.018Z,7.77
2023-04-30T15:18:25.162Z,6.53
2023-04-30T15:22:42.780Z,4.47
2023-04-30T15:27:00.015Z,4.20
2023-04-30T15:31:18.626Z,9.40
2023-04-30T15:35:36.151Z,5.65
2023-04-30T15:39:54.377Z,8.95
2023-04-30T15:44:16.931Z,7.72
2023-04-30T15:48:34.413Z,6.68
2023-04-30T15:52:56.367Z,5.55
2023-04-30T15:57:17.446Z,5.97
2023-04-30T16:01:35.032Z,8.55
2023-04-30T16:05:53.125Z,5.90
2023-04-30T16:10:11.106Z,7.77
2023-04-30T16:14:31.824Z,5.40
2023-04-30T16:18:49.980Z,5.07
2023-04-30T16:23:07.820Z,4.53
2023-04-30T16:27:25.492Z,6.13
2023-04-30T16:31:43.785Z,5.30
2023-04-30T16:36:01.356Z,4.47
2023-04-30T16:40:19.095Z,7.13
2023-04-30T16:44:37.311Z,6.88
2023-04-30T16:48:54.603Z,5.78
2023-04-30T16:53:12.877Z,11.68
2023-04-30T16:57:30.859Z,5.88
2023-04-30T17:02:16.285Z,7.03
2023-04-30T17:06:36.912Z,7.60
2023-04-30T17:10:54.227Z,10.83
2023-04-30T17:15:11.770Z,10.77
2023-04-30T17:19:29.552Z,6.25
2023-04-30T17:23:46.891Z,12.43
2023-04-30T17:28:06.442Z,11.93
2023-04-30T17:32:25.045Z,14.88
2023-04-30T17:36:44.498Z,11.18
2023-04-30T17:41:02.631Z,14.25
2023-04-30T17:45:20.809Z,18.83
2023-04-30T17:49:38.566Z,20.83
2023-04-30T17:53:56.293Z,18.05
2023-04-30T17:58:14.314Z,20.33
2023-04-30T18:02:32.637Z,26.20
2023-04-30T18:06:50.362Z,28.20
2023-04-30T18:11:08.769Z,31.98
2023-04-30T18:15:27.140Z,40.42
2023-04-30T18:19:44.823Z,37.35
2023-04-30T18:24:02.722Z,43.17
2023-04-30T18:28:20.176Z,64.95
2023-04-30T18:32:37.754Z,75.50
2023-04-30T18:36:55.354Z,85.88
2023-04-30T18:41:12.857Z,83.78
2023-04-30T18:45:30.683Z,73.63
2023-04-30T18:49:50.622Z,95.97
2023-04-30T18:54:08.303Z,87.43
2023-04-30T18:58:25.867Z,81.32
2023-04-30T19:02:43.428Z,87.70
2023-04-30T19:07:01.055Z,73.85
2023-04-30T19:11:20.085Z,122.20
2023-04-30T19:15:37.456Z,183.50
2023-04-30T19:19:58.208Z,143.25
2023-04-30T19:24:15.710Z,95.60
2023-04-30T19:28:33.344Z,143.38
2023-04-30T19:32:50.641Z,180.25
2023-04-30T19:37:08.007Z,223.20
2023-04-30T19:41:26.124Z,345.05
2023-04-30T19:45:47.910Z,153.30
2023-04-30T19:50:06.111Z,118.10
2023-04-30T19:54:23.477Z,124.80
2023-04-30T19:58:41.088Z,155.00
2023-04-30T20:03:02.508Z,167.93
2023-04-30T20:07:20.485Z,257.00
2023-04-30T20:11:38.794Z,162.93
2023-04-30T20:20:14.680Z,172.07
2023-04-30T20:24:32.156Z,142.43
2023-04-30T20:28:49.462Z,182.02
2023-04-30T20:33:08.149Z,143.98
2023-04-30T20:37:25.669Z,147.70
2023-04-30T20:41:43.703Z,454.35
2023-04-30T20:46:01.359Z,223.32
2023-04-30T20:50:20.472Z,149.73
2023-04-30T20:54:38.864Z,198.35
2023-04-30T20:58:56.444Z,172.60
2023-04-30T21:03:13.777Z,157.55
2023-04-30T21:07:33.146Z,186.88
2023-04-30T21:11:50.795Z,195.65
2023-04-30T21:16:08.827Z,181.18
2023-04-30T21:20:26.501Z,188.70
2023-04-30T21:24:44.340Z,173.65
2023-04-30T21:29:02.900Z,177.60
2023-04-30T21:37:38.986Z,195.65
2023-04-30T21:46:14.422Z,156.77
2023-04-30T21:50:35.438Z,186.13
2023-04-30T21:54:52.806Z,180.85
2023-04-30T21:59:10.148Z,215.85
2023-04-30T22:03:27.869Z,189.93
2023-04-30T22:07:45.725Z,190.80
2023-04-30T22:12:04.839Z,175.10
2023-04-30T22:16:22.146Z,169.95
2023-04-30T22:20:39.580Z,174.18
2023-04-30T22:24:57.093Z,187.35
2023-04-30T22:29:14.353Z,189.70
2023-04-30T22:33:36.518Z,179.80
2023-04-30T22:37:53.869Z,170.93
2023-04-30T22:42:11.258Z,190.18
2023-04-30T22:46:30.077Z,176.93
2023-04-30T22:50:47.588Z,174.82
2023-04-30T22:55:05.638Z,198.50
2023-04-30T22:59:23.097Z,214.25
2023-04-30T23:03:40.826Z,245.70
2023-04-30T23:07:58.247Z,291.40
2023-04-30T23:12:16.429Z,243.77
2023-04-30T23:16:33.760Z,212.00
2023-04-30T23:20:51.599Z,238.60
2023-04-30T23:25:09.206Z,223.07
2023-04-30T23:29:27.162Z,214.48
2023-04-30T23:33:44.601Z,214.18
2023-04-30T23:38:01.893Z,192.13
2023-04-30T23:42:19.146Z,181.93
2023-04-30T23:46:36.501Z,179.05
2023-04-30T23:51:00.867Z,175.80
2023-04-30T23:55:18.184Z,184.23
2023-04-30T23:59:35.533Z,191.95
